Time;durP1;ratioP1;P1;durP2;ratioP2;P2;SDS_P1;SDS_P2;PMS_P1;PMS_P2;Temp;Humidity;BMP_temperature;BMP_pressure;BME280_temperature;BME280_humidity;BME280_pressure;Samples;Min_cycle;Max_cycle;Signal;HPM_P1;HPM_P2
2022/12/17 14:06:24;;;;;;;79.45;26.08;;;;;;;-4.25;69.21;102191.91;6079398;23;20242;-70
2022/12/17 14:43:56;;;;;;;104.20;34.38;;;;;;;-4.24;69.35;102208.53;6142934;23;20021;-71
2022/12/17 14:55:24;;;;;;;96.22;32.13;;;;;;;-4.11;69.04;102237.97;6176484;23;20012;-71
2022/12/17 15:06:16;;;;;;;92.80;31.83;;;;;;;-4.22;69.20;102239.91;6157147;23;20024;-72
2022/12/17 15:17:42;;;;;;;76.80;29.15;;;;;;;-4.46;69.74;102236.84;6112984;23;20020;31
2022/12/17 15:20:16;;;;;;;82.40;30.05;;;;;;;-4.60;69.75;102242.31;6093720;23;20025;-74
2022/12/17 15:22:42;;;;;;;81.63;28.55;;;;;;;-4.59;69.23;102254.53;6062052;23;20015;-72
2022/12/17 15:25:12;;;;;;;84.32;30.15;;;;;;;-4.30;68.62;102254.03;6093889;23;20028;-72
2022/12/17 15:27:40;;;;;;;88.03;31.35;;;;;;;-4.35;68.42;102252.38;6093049;23;20028;-73
2022/12/17 15:30:08;;;;;;;89.22;31.27;;;;;;;-4.25;68.12;102259.19;6093221;23;20022;-73
2022/12/17 15:32:35;;;;;;;91.03;32.72;;;;;;;-4.22;68.52;102255.66;6093804;23;20363;-72
2022/12/17 15:35:01;;;;;;;99.32;34.97;;;;;;;-4.23;68.23;102264.41;6093299;23;20458;-71
2022/12/17 15:37:28;;;;;;;99.60;33.53;;;;;;;-4.30;68.69;102271.50;6094620;23;20038;-72
2022/12/17 15:39:55;;;;;;;100.93;35.70;;;;;;;-5.06;70.93;102278.81;6093866;23;20491;-71
2022/12/17 15:45:07;;;;;;;97.90;32.72;;;;;;;-5.25;71.85;102278.19;6092748;23;20022;-71
2022/12/17 15:47:33;;;;;;;94.88;33.20;;;;;;;-5.05;70.89;102275.31;6092453;23;20455;-72
2022/12/17 15:50:00;;;;;;;86.88;31.50;;;;;;;-4.81;70.48;102279.31;6078359;23;20105;-72
2022/12/17 15:52:27;;;;;;;83.90;29.98;;;;;;;-4.84;70.40;102285.44;6093106;23;20029;-74
2022/12/17 15:54:54;;;;;;;86.95;31.45;;;;;;;-4.58;69.76;102286.81;6091226;23;20070;-73
2022/12/17 15:57:21;;;;;;;86.30;31.98;;;;;;;-4.67;69.20;102281.72;6092423;23;20317;-72
2022/12/17 15:59:49;;;;;;;86.10;32.10;;;;;;;-4.75;69.54;102277.47;6093468;23;20018;-71
2022/12/17 16:02:16;;;;;;;101.10;33.40;;;;;;;-4.54;69.18;102280.66;6092909;23;20048;-72
2022/12/17 16:04:43;;;;;;;100.78;33.70;;;;;;;-4.43;69.03;102281.31;6085797;23;20018;-72
2022/12/17 16:07:09;;;;;;;96.05;33.13;;;;;;;-4.46;68.61;102286.59;6093405;23;20094;-72
2022/12/17 16:09:36;;;;;;;101.55;34.80;;;;;;;-4.33;68.43;102292.53;6092831;23;20026;-71
2022/12/17 16:12:02;;;;;;;97.50;32.95;;;;;;;-4.36;68.41;102288.19;6093501;23;20181;-72
2022/12/17 16:14:29;;;;;;;94.35;34.65;;;;;;;-4.66;69.40;102284.31;6093178;23;20022;-72
2022/12/17 16:16:55;;;;;;;110.38;37.42;;;;;;;-4.55;70.20;102281.53;6093282;23;20048;-72
2022/12/17 16:19:22;;;;;;;102.25;36.60;;;;;;;-4.55;69.74;102282.41;6093143;23;20352;-72
2022/12/17 16:21:48;;;;;;;110.90;35.95;;;;;;;-4.70;69.92;102281.78;6093075;23;20022;-72
2022/12/17 16:24:15;;;;;;;107.25;36.00;;;;;;;-4.70;69.97;102289.63;6093360;23;20023;-72
2022/12/17 16:26:41;;;;;;;110.80;36.67;;;;;;;-5.02;71.28;102298.81;6082018;23;20034;-71
2022/12/17 16:29:08;;;;;;;103.38;37.50;;;;;;;-4.60;70.47;102294.69;6092791;23;20049;-71
2022/12/17 16:31:34;;;;;;;114.10;37.47;;;;;;;-4.55;69.66;102292.88;6092251;23;20029;-71
2022/12/17 16:34:01;;;;;;;107.20;37.78;;;;;;;-4.58;70.08;102290.31;6088014;23;20340;-72
2022/12/17 16:36:27;;;;;;;99.32;34.90;;;;;;;-5.23;71.53;102294.75;6092870;23;20033;-72
2022/12/17 16:38:54;;;;;;;95.32;33.30;;;;;;;-5.44;71.80;102299.38;6092789;23;20034;-72
2022/12/17 16:41:21;;;;;;;94.68;32.13;;;;;;;-5.49;72.06;102295.06;6093191;23;20459;-72
2022/12/17 16:43:48;;;;;;;100.45;35.33;;;;;;;-5.22;71.36;102297.31;6093107;23;20045;-71
2022/12/17 16:46:33;;;;;;;91.47;33.60;;;;;;;-4.98;70.45;102300.50;6092835;23;20034;-71
2022/12/17 16:49:08;;;;;;;103.60;35.40;;;;;;;-4.87;69.99;102306.44;6095168;23;20025;-72
2022/12/17 16:51:35;;;;;;;103.40;36.88;;;;;;;-4.85;70.31;102307.28;6094364;23;20022;-71
2022/12/17 16:54:12;;;;;;;109.85;36.83;;;;;;;-4.63;69.79;102304.34;6094094;23;20025;-71
2022/12/17 16:56:38;;;;;;;103.35;38.50;;;;;;;-4.49;69.15;102299.75;6094592;23;20352;-72
2022/12/17 16:59:07;;;;;;;97.32;37.22;;;;;;;-4.55;69.05;102308.59;6094104;23;20022;-72
2022/12/17 17:01:34;;;;;;;110.15;40.65;;;;;;;-5.13;71.08;102303.34;6095304;23;20352;-72
2022/12/17 17:04:03;;;;;;;112.60;37.13;;;;;;;-5.61;73.30;102314.38;6093104;23;20471;-72
2022/12/17 17:06:29;;;;;;;105.90;37.10;;;;;;;-5.71;73.95;102313.63;6095296;23;20045;-72
2022/12/17 17:09:05;;;;;;;112.97;38.83;;;;;;;-5.75;74.57;102314.53;6095444;23;20027;-72
2022/12/17 17:11:31;;;;;;;116.45;38.70;;;;;;;-5.70;74.19;102319.72;6092755;23;20033;-72
2022/12/17 17:13:58;;;;;;;109.57;37.90;;;;;;;-5.63;73.85;102318.75;6095038;23;20028;-71
2022/12/17 17:16:24;;;;;;;110.20;36.88;;;;;;;-5.49;73.50;102322.09;6093909;23;20030;-72
2022/12/17 17:18:53;;;;;;;110.32;34.63;;;;;;;-5.55;72.91;102316.06;6094692;23;20078;-71
2022/12/17 17:21:19;;;;;;;102.80;35.28;;;;;;;-5.20;72.07;102316.50;6094608;23;20339;-72
2022/12/17 17:23:47;;;;;;;103.45;34.60;;;;;;;-5.45;72.13;102323.78;6094795;23;20023;-71
2022/12/17 17:26:15;;;;;;;107.13;34.65;;;;;;;-5.50;73.08;102325.56;6094145;23;20021;-71
2022/12/17 17:28:43;;;;;;;101.78;36.53;;;;;;;-5.30;73.03;102320.13;6094610;23;20410;-71
2022/12/17 17:31:11;;;;;;;106.45;35.85;;;;;;;-5.35;72.09;102335.00;6094368;23;20022;-71
2022/12/17 17:33:42;;;;;;;112.63;36.33;;;;;;;-5.38;72.20;102337.66;6094632;23;20356;-71
2022/12/17 17:36:14;;;;;;;105.57;34.80;;;;;;;-5.76;73.74;102344.19;6094144;23;20022;-71
2022/12/17 17:38:40;;;;;;;101.68;33.60;;;;;;;-5.47;73.04;102346.47;6094216;23;20025;-72
2022/12/17 17:41:10;;;;;;;99.15;34.03;;;;;;;-5.75;73.88;102348.53;6094638;23;20101;-72
2022/12/17 17:43:37;;;;;;;137.05;30.65;;;;;;;-5.79;72.90;102353.81;6094325;23;20019;-71
2022/12/17 17:46:08;;;;;;;124.10;34.83;;;;;;;-5.83;74.08;102357.34;6094618;23;20018;-72
2022/12/17 17:48:36;;;;;;;93.25;32.20;;;;;;;-5.64;74.05;102352.78;6079592;23;20371;-71
2022/12/17 17:51:07;;;;;;;110.95;35.20;;;;;;;-5.30;72.48;102354.13;6093947;23;20022;-72
2022/12/17 17:53:34;;;;;;;111.95;36.65;;;;;;;-5.35;72.42;102350.72;6093714;23;20019;-72
2022/12/17 17:56:06;;;;;;;108.55;34.85;;;;;;;-5.82;73.60;102359.91;6094253;23;20105;-71
2022/12/17 17:58:33;;;;;;;94.43;33.47;;;;;;;-5.34;72.99;102352.44;6091795;23;20053;-72
2022/12/17 18:01:07;;;;;;;105.97;35.80;;;;;;;-5.34;72.71;102352.44;6094033;23;20030;-72
2022/12/17 18:03:34;;;;;;;112.53;33.65;;;;;;;-5.96;73.84;102362.66;6043709;23;20053;-72
2022/12/17 18:06:06;;;;;;;94.28;32.08;;;;;;;-5.94;74.56;102363.53;6094841;23;20015;-72
2022/12/17 18:08:36;;;;;;;103.93;34.70;;;;;;;-6.13;74.71;102359.34;6093486;23;20033;-71
2022/12/17 18:11:05;;;;;;;98.97;33.20;;;;;;;-5.80;74.10;102366.00;6094070;23;20045;-71
2022/12/17 18:16:19;;;;;;;104.57;33.03;;;;;;;-6.07;74.32;102374.09;6094273;23;20452;-71
2022/12/17 18:18:46;;;;;;;97.15;30.15;;;;;;;-6.12;75.04;102374.13;6093507;23;20101;-71
2022/12/17 18:21:16;;;;;;;96.78;32.58;;;;;;;-5.60;74.38;102383.22;6094376;23;20341;-72
2022/12/17 18:23:43;;;;;;;85.18;29.25;;;;;;;-5.95;74.27;102384.44;6094030;23;20026;-71
2022/12/17 18:26:18;;;;;;;80.90;27.33;;;;;;;-5.76;73.63;102380.78;6093433;23;20021;-71
2022/12/17 18:28:46;;;;;;;82.28;27.70;;;;;;;-5.36;72.86;102374.25;6088913;23;20103;-71
2022/12/17 18:31:19;;;;;;;95.32;27.48;;;;;;;-5.54;72.35;102375.31;6094260;23;20407;-71
2022/12/17 18:33:49;;;;;;;90.43;27.50;;;;;;;-5.70;72.65;102378.13;6093963;23;20044;-71
2022/12/17 18:36:21;;;;;;;86.18;28.88;;;;;;;-5.78;73.28;102382.53;6094108;23;20032;-71
2022/12/17 18:38:47;;;;;;;;;;;;;;;-5.92;74.08;102379.19;6094207;23;20368;-71
2022/12/17 18:44:04;;;;;;;89.63;29.52;;;;;;;-5.74;73.75;102389.47;6094085;23;20026;-71
2022/12/17 18:46:32;;;;;;;91.05;29.92;;;;;;;-5.91;74.14;102399.19;6092739;23;20033;-71
2022/12/17 18:49:02;;;;;;;166.98;29.98;;;;;;;-5.92;73.69;102400.09;6093905;23;20030;-71
2022/12/17 18:51:28;;;;;;;109.50;33.50;;;;;;;-5.99;73.96;102401.03;6094182;23;20029;-70
2022/12/17 18:54:00;;;;;;;118.75;36.30;;;;;;;-5.91;74.11;102400.06;6067829;23;20097;-71
2022/12/17 18:56:28;;;;;;;108.47;33.53;;;;;;;-6.13;74.33;102392.44;6093851;23;20026;-71
2022/12/17 18:59:17;;;;;;;110.03;32.72;;;;;;;-6.32;74.99;102400.41;6093672;23;20455;-71
2022/12/17 19:01:44;;;;;;;99.03;30.35;;;;;;;-6.40;75.52;102412.63;6093439;23;20063;-71
2022/12/17 19:04:14;;;;;;;90.85;30.10;;;;;;;-6.35;75.35;102420.47;6092276;23;20030;-72
2022/12/17 19:06:42;;;;;;;107.43;30.50;;;;;;;-6.25;75.60;102416.88;6093734;23;20029;-72
2022/12/17 19:09:19;;;;;;;106.72;31.15;;;;;;;-6.42;75.39;102417.03;6094041;23;20025;-72
2022/12/17 19:11:45;;;;;;;100.18;31.58;;;;;;;-6.20;75.06;102422.97;6093956;23;20045;-71
2022/12/17 19:14:12;;;;;;;110.97;32.67;;;;;;;-6.00;74.37;102422.81;6093246;23;20030;-71
2022/12/17 19:16:39;;;;;;;107.18;31.95;;;;;;;-6.61;75.33;102420.59;6092995;23;20356;-71
2022/12/17 19:19:05;;;;;;;105.13;31.08;;;;;;;-6.67;76.67;102430.22;6093637;23;20542;-71
2022/12/17 19:21:33;;;;;;;100.03;32.65;;;;;;;-6.55;76.22;102433.63;6094660;23;20022;-71
2022/12/17 19:24:03;;;;;;;117.72;29.92;;;;;;;-6.63;75.49;102437.16;6093736;23;20030;-72
2022/12/17 19:26:30;;;;;;;105.30;30.48;;;;;;;-6.29;74.89;102431.72;6092850;23;20030;-72
2022/12/17 19:28:58;;;;;;;103.55;31.38;;;;;;;-5.95;74.45;102428.84;6093709;23;20025;-72
2022/12/17 19:31:27;;;;;;;100.22;31.30;;;;;;;-5.97;74.21;102439.34;6093637;23;20026;-72
2022/12/17 19:33:55;;;;;;;103.30;32.20;;;;;;;-6.21;74.05;102435.16;6093059;23;20026;-72
2022/12/17 19:36:23;;;;;;;105.82;32.00;;;;;;;-6.58;75.04;102444.09;6093739;23;20030;-72
2022/12/17 19:38:55;;;;;;;133.88;33.08;;;;;;;-6.54;74.74;102448.41;6093204;23;20106;-72
2022/12/17 19:41:23;;;;;;;94.43;29.85;;;;;;;-6.31;74.85;102464.81;6080129;23;20036;-71
2022/12/17 19:43:55;;;;;;;89.10;28.20;;;;;;;-6.52;74.02;102459.72;6092753;23;20023;-72
2022/12/17 19:46:23;;;;;;;83.35;27.80;;;;;;;-6.07;73.85;102452.50;6092819;23;20105;-72
2022/12/17 19:48:51;;;;;;;93.22;27.88;;;;;;;-6.39;73.38;102453.53;6093685;23;20340;-71
2022/12/17 19:51:21;;;;;;;90.88;29.63;;;;;;;-6.47;73.86;102461.41;6093215;23;20030;-72
2022/12/17 19:53:48;;;;;;;88.03;28.05;;;;;;;-6.01;72.88;102468.09;6093031;23;20018;-72
2022/12/17 19:56:17;;;;;;;83.23;29.47;;;;;;;-6.00;72.25;102469.84;6093004;23;20022;-72
2022/12/17 19:58:46;;;;;;;97.70;30.35;;;;;;;-6.09;72.56;102462.94;6093337;23;20027;-71
2022/12/17 20:01:22;;;;;;;97.35;30.48;;;;;;;-6.18;73.22;102458.66;6092990;23;20023;-71
2022/12/17 20:03:49;;;;;;;98.85;30.17;;;;;;;-6.41;74.24;102461.41;6093929;23;20057;-71
2022/12/17 20:06:17;;;;;;;98.30;31.70;;;;;;;-6.79;74.20;102469.41;6093493;23;20383;-71
2022/12/17 20:08:44;;;;;;;106.93;30.35;;;;;;;-6.35;73.65;102463.13;6093363;23;20459;-71
2022/12/17 20:14:07;;;;;;;92.50;32.65;;;;;;;-6.19;72.84;102469.94;6092977;23;20452;-71
2022/12/17 20:16:36;;;;;;;94.68;31.05;;;;;;;-6.53;73.83;102473.63;6092587;23;20026;-71
2022/12/17 20:19:05;;;;;;;88.68;30.25;;;;;;;-6.28;73.05;102479.63;6091946;23;20413;-71
2022/12/17 20:21:32;;;;;;;92.35;30.02;;;;;;;-6.70;72.62;102479.81;6092693;23;20046;-71
2022/12/17 20:23:58;;;;;;;80.70;28.00;;;;;;;-6.94;74.35;102477.31;6092719;23;20405;-71
2022/12/17 20:26:25;;;;;;;83.57;27.05;;;;;;;-6.77;74.47;102478.13;6092808;23;20026;-71
2022/12/17 20:28:53;;;;;;;74.72;28.20;;;;;;;-6.44;73.93;102478.81;6093647;23;20025;-71
2022/12/17 20:31:20;;;;;;;87.10;29.75;;;;;;;-6.67;74.09;102482.44;6093240;23;20030;-71
2022/12/17 20:33:47;;;;;;;83.18;27.95;;;;;;;-6.30;73.21;102492.66;6093971;23;20451;-70
2022/12/17 20:36:17;;;;;;;89.80;28.05;;;;;;;-6.52;73.23;102483.22;6093746;23;20030;-71
2022/12/17 20:38:44;;;;;;;84.35;28.10;;;;;;;-6.53;73.36;102484.09;6093549;23;20109;-71
2022/12/17 20:41:18;;;;;;;81.55;27.38;;;;;;;-6.31;73.11;102483.09;6092784;23;20301;-71
2022/12/17 20:43:45;;;;;;;78.63;27.73;;;;;;;-6.36;72.64;102492.69;6092874;23;20023;-71
2022/12/17 20:46:12;;;;;;;73.75;28.20;;;;;;;-6.19;71.95;102490.00;6093558;23;20023;-71
2022/12/17 20:48:40;;;;;;;90.82;29.38;;;;;;;-6.37;72.66;102493.59;6093654;23;20022;-71
2022/12/17 20:51:15;;;;;;;91.43;28.00;;;;;;;-6.46;72.30;102497.13;6093670;23;20089;-72
2022/12/17 20:53:43;;;;;;;80.20;28.45;;;;;;;-6.36;72.34;102497.06;6093156;23;20471;-71
2022/12/17 20:56:16;;;;;;;85.97;30.15;;;;;;;-6.12;72.20;102504.75;6093644;23;20097;-71
2022/12/17 20:58:43;;;;;;;84.15;28.48;;;;;;;-6.36;72.08;102503.13;6091941;23;20025;-71
2022/12/17 21:01:18;;;;;;;92.25;30.08;;;;;;;-6.23;71.95;102499.59;6094062;23;20026;-70
2022/12/17 21:03:45;;;;;;;96.38;28.25;;;;;;;-7.01;73.70;102506.88;6092243;23;20093;-71
2022/12/17 21:06:19;;;;;;;90.43;29.38;;;;;;;-6.79;74.37;102503.34;6092936;23;20018;-72
2022/12/17 21:08:47;;;;;;;84.68;30.05;;;;;;;-6.31;73.07;102500.53;6092490;23;20049;-71
2022/12/17 21:11:18;;;;;;;89.85;29.25;;;;;;;-7.38;75.00;102504.34;6093191;23;20049;-71
2022/12/17 21:13:45;;;;;;;91.18;28.77;;;;;;;-7.10;74.95;102507.78;6091756;23;20033;-71
2022/12/17 21:16:14;;;;;;;83.68;28.33;;;;;;;-7.16;74.67;102513.88;6093030;23;20057;-71
2022/12/17 21:18:41;;;;;;;100.47;31.33;;;;;;;-7.52;76.74;102508.72;6094676;23;20053;-71
2022/12/17 21:21:15;;;;;;;100.40;28.33;;;;;;;-7.49;75.59;102508.72;6094057;23;20022;-71
2022/12/17 21:23:41;;;;;;;107.80;30.80;;;;;;;-7.64;76.73;102502.63;6093227;23;20037;-71
2022/12/17 21:26:37;;;;;;;88.72;28.58;;;;;;;-7.22;75.50;102513.00;6093472;23;20326;-71
2022/12/17 21:29:05;;;;;;;136.20;31.77;;;;;;;-7.73;75.85;102515.66;6086596;23;20101;-71
2022/12/17 21:31:46;;;;;;;92.90;29.73;;;;;;;-7.39;75.66;102519.13;6092897;23;20030;-71
2022/12/17 21:34:15;;;;;;;;;;;;;;;-7.30;75.36;102528.66;6094921;23;20026;-71
2022/12/17 21:36:42;;;;;;;116.43;25.10;;;;;;;-7.69;75.33;102527.81;6093937;23;19940;-70
2022/12/17 21:39:12;;;;;;;97.75;25.80;;;;;;;-7.64;76.66;102538.22;6095382;23;20045;-71
2022/12/17 21:41:40;;;;;;;343.77;28.15;;;;;;;-8.13;77.01;102538.16;6093585;23;20022;-71
2022/12/17 21:44:11;;;;;;;98.85;25.30;;;;;;;-7.59;75.95;102539.97;6091503;23;20026;-71
2022/12/17 21:46:39;;;;;;;83.85;25.30;;;;;;;-7.51;75.65;102539.09;6092937;23;20018;-71
2022/12/17 21:49:06;;;;;;;111.40;27.02;;;;;;;-7.35;75.09;102551.28;6068333;23;20058;-71
2022/12/17 21:51:32;;;;;;;106.45;28.63;;;;;;;-7.32;75.00;102533.03;6094530;23;20089;-71
2022/12/17 21:54:01;;;;;;;98.47;27.77;;;;;;;-7.70;75.72;102539.09;6094542;23;20041;-71
2022/12/17 21:56:35;;;;;;;82.00;27.70;;;;;;;-7.07;74.73;102538.22;6094454;23;20022;-71
2022/12/17 21:59:02;;;;;;;146.02;27.17;;;;;;;-7.24;73.89;102539.09;6094034;23;20030;-72
2022/12/17 22:01:32;;;;;;;104.47;27.65;;;;;;;-7.32;74.64;102538.25;6094299;23;20023;-71
2022/12/17 22:04:01;;;;;;;91.65;28.92;;;;;;;-7.41;74.91;102544.31;6094713;23;20026;-72
2022/12/17 22:06:30;;;;;;;136.93;29.10;;;;;;;-7.72;75.55;102542.56;6089044;23;20034;-71
2022/12/17 22:09:02;;;;;;;88.28;27.20;;;;;;;-7.41;74.70;102546.94;6093061;23;20026;-71
2022/12/17 22:14:01;;;;;;;97.72;27.30;;;;;;;-7.68;76.10;102549.53;6093720;23;20030;-73
2022/12/17 22:14:35;;;;;;;104.70;26.88;;;;;;;-7.62;76.05;102558.22;6093693;23;20097;-71
2022/12/17 22:17:01;;;;;;;109.05;29.00;;;;;;;-7.28;75.09;102557.38;6094076;23;20018;-72
2022/12/17 22:19:28;;;;;;;90.50;28.50;;;;;;;-7.23;74.54;102547.78;6086248;23;20051;-70
2022/12/17 22:21:54;;;;;;;104.88;28.67;;;;;;;-7.19;73.95;102555.59;6094175;23;20019;-71
2022/12/17 22:24:24;;;;;;;97.68;29.52;;;;;;;-6.85;73.22;102558.16;6094011;23;20026;-71
2022/12/17 22:26:51;;;;;;;111.82;30.77;;;;;;;-7.56;74.13;102559.09;6094609;23;20452;-71
2022/12/17 22:34:50;;;;;;;89.07;28.88;;;;;;;-6.87;73.00;102562.53;6093808;23;20400;-71
2022/12/17 22:37:37;;;;;;;87.20;28.75;;;;;;;-7.16;74.00;102563.41;6094123;23;20422;-71
2022/12/17 22:40:23;;;;;;;95.30;27.70;;;;;;;-7.39;74.80;102566.06;6093859;23;20033;-71
2022/12/17 22:43:28;;;;;;;103.30;29.33;;;;;;;-7.85;75.22;102573.81;6093751;23;20372;-71
2022/12/17 22:46:15;;;;;;;107.03;25.17;;;;;;;-7.99;75.93;102583.34;6093174;23;20019;-70
2022/12/17 22:48:42;;;;;;;84.70;28.10;;;;;;;-7.80;75.83;102592.06;6094135;23;20516;-70
2022/12/17 22:51:09;;;;;;;90.80;26.33;;;;;;;-7.85;75.63;102593.78;6093601;23;20050;-70
2022/12/17 22:53:45;;;;;;;122.03;27.08;;;;;;;-8.70;77.00;102600.41;6092296;23;20022;-71
2022/12/17 22:56:12;;;;;;;96.80;26.42;;;;;;;-8.48;78.00;102605.72;6093893;23;20049;-70
2022/12/17 22:58:59;;;;;;;171.68;25.50;;;;;;;-8.37;77.25;102614.44;6093371;23;20499;-71
2022/12/17 23:01:26;;;;;;;89.53;26.88;;;;;;;-8.03;76.30;102604.16;6093334;23;20093;-70
2022/12/17 23:03:57;;;;;;;83.38;26.90;;;;;;;-7.89;75.81;102615.50;6094153;23;20359;-71
2022/12/17 23:06:25;;;;;;;128.90;25.85;;;;;;;-8.15;75.54;102613.69;6093342;23;20026;-71
2022/12/17 23:08:52;;;;;;;128.70;26.45;;;;;;;-8.17;75.74;102623.22;6083937;23;20034;-72
2022/12/17 23:11:24;;;;;;;84.15;24.50;;;;;;;-7.90;75.46;102621.56;6092288;23;20032;-70
2022/12/17 23:13:53;;;;;;;101.50;25.70;;;;;;;-8.11;75.17;102618.03;6093595;23;20094;-71
2022/12/17 23:16:19;;;;;;;86.03;25.73;;;;;;;-7.90;75.00;102608.56;6093307;23;20036;-69
2022/12/17 23:18:49;;;;;;;116.57;28.20;;;;;;;-7.98;75.51;102624.16;6094237;23;20415;-71
2022/12/17 23:21:22;;;;;;;108.10;26.15;;;;;;;-8.04;75.68;102612.84;6093156;23;20023;-71
2022/12/17 23:23:53;;;;;;;106.55;27.33;;;;;;;-7.90;75.47;102613.75;6090987;23;20451;-70
2022/12/17 23:26:23;;;;;;;103.13;29.13;;;;;;;-7.78;74.68;102611.16;6093341;23;20022;-70
2022/12/17 23:28:57;;;;;;;99.95;29.98;;;;;;;-7.66;73.96;102611.22;6092512;23;20022;-70
2022/12/17 23:31:25;;;;;;;88.20;27.90;;;;;;;-7.64;73.84;102611.19;6093361;23;20027;-70
2022/12/17 23:33:52;;;;;;;92.63;28.73;;;;;;;-7.73;74.70;102613.81;6093333;23;20077;-71
2022/12/17 23:36:21;;;;;;;89.32;25.58;;;;;;;-8.64;76.24;102616.06;6092239;23;20050;-71
2022/12/17 23:38:49;;;;;;;202.90;26.58;;;;;;;-9.42;78.76;102615.47;6091931;23;20117;-70
2022/12/17 23:41:18;;;;;;;81.70;24.55;;;;;;;-8.72;78.04;102617.72;6093220;23;20041;-70
2022/12/17 23:43:47;;;;;;;179.68;25.00;;;;;;;-8.69;77.20;102617.75;6093307;23;20014;-71
2022/12/17 23:46:13;;;;;;;96.30;26.65;;;;;;;-8.78;78.21;102620.28;6091901;23;20095;-70
2022/12/17 23:48:42;;;;;;;86.15;25.38;;;;;;;-8.26;76.43;102620.59;6093569;23;20033;-70
2022/12/17 23:51:13;;;;;;;88.55;26.98;;;;;;;-8.08;75.83;102625.00;6093802;23;20105;-71
2022/12/17 23:53:39;;;;;;;101.45;27.40;;;;;;;-7.88;74.81;102625.94;6093265;23;20089;-71
2022/12/17 23:56:11;;;;;;;91.95;27.52;;;;;;;-7.98;74.45;102625.88;6092807;23;20456;-71
2022/12/17 23:58:38;;;;;;;;;;;;;;;-8.32;75.50;102631.84;6093337;23;20026;-71
